Time;durP1;ratioP1;P1;durP2;ratioP2;P2;SDS_P1;SDS_P2;PMS_P1;PMS_P2;Temp;Humidity;BMP_temperature;BMP_pressure;BME280_temperature;BME280_humidity;BME280_pressure;Samples;Min_cycle;Max_cycle;Signal;HPM_P1;HPM_P2
2022/07/29 00:01:40;;;;;;;12.88;6.53;;;;;;;18.85;100.00;94466.72;5036679;28;20086;-90
2022/07/29 00:04:05;;;;;;;10.50;6.90;;;;;;;18.64;100.00;94467.41;5036886;28;20032;-89
2022/07/29 00:06:31;;;;;;;7.95;5.68;;;;;;;18.61;100.00;94473.38;5036703;28;20261;-89
2022/07/29 00:08:56;;;;;;;10.13;5.95;;;;;;;18.58;100.00;94473.22;5036774;28;20103;-89
2022/07/29 00:11:22;;;;;;;11.85;6.85;;;;;;;18.58;100.00;94475.88;5020114;28;20075;-90
2022/07/29 00:13:47;;;;;;;13.68;6.78;;;;;;;18.60;100.00;94471.03;5020215;28;20039;-89
2022/07/29 00:16:15;;;;;;;13.65;7.03;;;;;;;18.68;100.00;94466.78;5020251;28;20033;-89
2022/07/29 00:18:40;;;;;;;12.15;7.43;;;;;;;18.76;100.00;94472.06;5036994;28;20114;-89
2022/07/29 00:21:06;;;;;;;10.48;6.32;;;;;;;18.77;100.00;94470.97;5020582;28;20065;-88
2022/07/29 00:23:31;;;;;;;10.40;6.28;;;;;;;18.92;100.00;94479.50;5019771;28;20021;-89
2022/07/29 00:25:59;;;;;;;12.95;7.40;;;;;;;19.14;100.00;94475.09;5019849;28;20052;-88
2022/07/29 00:28:24;;;;;;;15.73;7.57;;;;;;;19.27;100.00;94479.41;5020756;28;20381;-87
2022/07/29 00:30:50;;;;;;;17.05;8.45;;;;;;;19.29;100.00;94477.22;5037506;28;20029;-88
2022/07/29 00:33:17;;;;;;;13.80;7.65;;;;;;;19.43;100.00;94476.97;5011564;28;20029;-89
2022/07/29 00:35:46;;;;;;;17.02;7.82;;;;;;;19.52;100.00;94479.63;5016442;28;20068;-88
2022/07/29 00:38:15;;;;;;;16.90;8.68;;;;;;;19.67;100.00;94470.28;5006218;28;20088;-88
2022/07/29 00:40:42;;;;;;;12.43;8.02;;;;;;;19.62;100.00;94473.91;5034506;28;20485;-88
2022/07/29 00:43:07;;;;;;;11.68;8.25;;;;;;;19.51;100.00;94472.75;5019830;28;20029;-88
2022/07/29 00:45:36;;;;;;;14.90;8.02;;;;;;;19.35;100.00;94473.28;5035905;28;20099;-90
2022/07/29 00:48:04;;;;;;;11.48;7.38;;;;;;;19.40;100.00;94466.25;5035637;28;20025;-89
2022/07/29 00:50:30;;;;;;;10.50;7.70;;;;;;;19.53;100.00;94475.84;5020018;28;20022;-89
2022/07/29 00:52:56;;;;;;;15.38;7.47;;;;;;;19.52;100.00;94476.97;5019588;28;20021;-88
2022/07/29 00:55:24;;;;;;;12.40;7.70;;;;;;;19.33;100.00;94472.06;5035962;28;20022;-88
2022/07/29 00:57:50;;;;;;;14.68;7.47;;;;;;;19.42;100.00;94472.78;5036140;28;20021;-89
2022/07/29 01:00:24;;;;;;;13.82;6.30;;;;;;;19.67;100.00;94459.66;5019656;28;20052;-89
2022/07/29 01:02:50;;;;;;;12.52;6.43;;;;;;;19.80;100.00;94468.50;5019522;28;20030;-89
2022/07/29 01:05:21;;;;;;;10.93;6.80;;;;;;;19.49;100.00;94461.63;5035659;28;20036;-89
2022/07/29 01:07:49;;;;;;;9.98;5.97;;;;;;;19.49;100.00;94467.75;5019628;28;20029;-90
2022/07/29 01:10:15;;;;;;;10.85;6.93;;;;;;;19.41;100.00;94473.09;5019378;28;20057;-88
2022/07/29 01:12:41;;;;;;;12.00;7.00;;;;;;;19.18;100.00;94471.50;5036715;28;20068;-88
2022/07/29 01:15:07;;;;;;;12.10;8.13;;;;;;;18.78;100.00;94467.22;5019473;28;20025;-88
2022/07/29 01:17:52;;;;;;;12.57;7.85;;;;;;;18.64;100.00;94471.94;5037148;28;20485;-89
2022/07/29 01:20:42;;;;;;;12.02;6.68;;;;;;;18.41;100.00;94471.34;5036630;28;20025;-89
2022/07/29 01:23:45;;;;;;;15.15;7.20;;;;;;;18.20;100.00;94474.66;5036588;28;20442;-88
2022/07/29 01:26:28;;;;;;;14.02;7.47;;;;;;;18.14;100.00;94470.59;5035916;28;20025;-88
2022/07/29 01:29:03;;;;;;;11.18;6.97;;;;;;;18.19;100.00;94463.25;5035909;28;20115;-89
2022/07/29 01:31:50;;;;;;;15.63;7.63;;;;;;;18.16;100.00;94463.13;5035543;28;20040;-88
2022/07/29 01:34:23;;;;;;;15.32;7.95;;;;;;;17.92;100.00;94467.75;5036928;28;20419;-89
2022/07/29 01:37:06;;;;;;;11.95;7.30;;;;;;;17.91;100.00;94460.91;5036123;28;20056;-88
2022/07/29 01:39:36;;;;;;;14.20;7.75;;;;;;;17.94;100.00;94462.94;5039236;28;20415;-89
2022/07/29 01:42:23;;;;;;;15.60;8.45;;;;;;;17.87;100.00;94449.38;5039647;28;20092;-88
2022/07/29 01:44:58;;;;;;;15.20;7.57;;;;;;;17.85;100.00;94443.59;5040291;28;20036;-88
2022/07/29 01:47:26;;;;;;;18.77;8.60;;;;;;;17.79;100.00;94452.81;5039419;28;20029;-88
2022/07/29 01:49:54;;;;;;;11.65;7.70;;;;;;;17.84;100.00;94463.25;5039015;28;20032;-88
2022/07/29 01:52:27;;;;;;;12.20;7.35;;;;;;;17.94;100.00;94459.50;5039405;28;20486;-89
2022/07/29 01:54:56;;;;;;;15.43;7.00;;;;;;;17.85;100.00;94472.75;5039356;28;20084;-90
2022/07/29 01:57:26;;;;;;;11.35;7.03;;;;;;;17.93;100.00;94472.00;5022830;28;20029;-89
2022/07/29 01:59:52;;;;;;;10.20;6.50;;;;;;;18.01;100.00;94469.66;5039099;28;20025;-90
2022/07/29 02:02:18;;;;;;;13.43;6.82;;;;;;;18.08;100.00;94462.81;5039148;28;20079;-89
2022/07/29 02:04:48;;;;;;;14.48;7.82;;;;;;;17.98;100.00;94459.66;5039084;28;20064;-89
2022/07/29 02:07:16;;;;;;;17.42;7.70;;;;;;;17.84;100.00;94459.81;5023249;28;20029;-89
2022/07/29 02:09:43;;;;;;;11.75;6.57;;;;;;;17.74;100.00;94468.84;5038755;28;20040;-89
2022/07/29 02:12:09;;;;;;;14.07;6.75;;;;;;;17.78;100.00;94461.81;5039048;28;20397;-89
2022/07/29 02:14:39;;;;;;;10.18;7.07;;;;;;;17.75;100.00;94459.78;5022591;28;20033;-90
2022/07/29 02:17:12;;;;;;;13.77;6.72;;;;;;;17.90;100.00;94459.34;5038836;28;20086;-89
2022/07/29 02:19:38;;;;;;;15.68;6.97;;;;;;;17.97;100.00;94456.22;5038971;28;20029;-89
2022/07/29 02:22:45;;;;;;;13.55;7.13;;;;;;;17.96;100.00;94454.66;5022293;28;20021;-88
2022/07/29 02:25:10;;;;;;;15.50;6.20;;;;;;;17.95;100.00;94456.56;5038704;28;20106;-89
2022/07/29 02:27:37;;;;;;;12.77;6.63;;;;;;;18.04;100.00;94458.44;5038890;28;20030;-89
2022/07/29 02:30:14;;;;;;;;;;;;;;;;;;;;;
2022/07/29 02:32:41;;;;;;;11.40;6.53;;;;;;;17.95;100.00;94456.56;5038392;28;20442;-89
2022/07/29 02:35:08;;;;;;;11.13;6.40;;;;;;;17.79;100.00;94458.09;5038530;28;20116;-89
2022/07/29 02:37:35;;;;;;;11.00;6.18;;;;;;;17.83;100.00;94464.34;5021907;28;20021;-89
2022/07/29 02:40:01;;;;;;;18.67;6.32;;;;;;;18.00;100.00;94460.91;5022036;28;20029;-89
2022/07/29 02:42:28;;;;;;;8.77;6.30;;;;;;;17.92;100.00;94465.09;5022260;28;20022;-90
2022/07/29 02:44:53;;;;;;;9.63;6.05;;;;;;;17.94;100.00;94462.16;5038889;28;20030;-90
2022/07/29 02:47:24;;;;;;;13.20;6.10;;;;;;;17.76;100.00;94469.31;5022243;28;20458;-89
2022/07/29 02:50:11;;;;;;;10.40;6.35;;;;;;;17.49;100.00;94465.81;5037792;28;20033;-88
2022/07/29 02:52:45;;;;;;;7.88;6.03;;;;;;;17.48;100.00;94453.69;5038200;28;20021;-88
2022/07/29 02:55:18;;;;;;;9.63;5.70;;;;;;;17.54;100.00;94455.09;5021782;28;20017;-89
2022/07/29 02:57:51;;;;;;;10.43;6.07;;;;;;;17.63;100.00;94449.81;5024000;28;20339;-89
2022/07/29 03:00:17;;;;;;;8.50;5.78;;;;;;;17.63;100.00;94455.88;5018309;28;20109;-89
2022/07/29 03:02:45;;;;;;;12.13;6.15;;;;;;;17.57;100.00;94453.69;5018361;28;20067;-89
2022/07/29 03:05:19;;;;;;;10.18;5.65;;;;;;;17.59;100.00;94456.84;5017931;28;20025;-89
2022/07/29 03:07:47;;;;;;;10.95;6.80;;;;;;;17.42;100.00;94463.63;5001960;28;20044;-89
2022/07/29 03:10:13;;;;;;;11.75;6.07;;;;;;;17.42;100.00;94454.94;5017857;28;20032;-90
2022/07/29 03:12:39;;;;;;;11.05;6.45;;;;;;;17.49;100.00;94457.88;5017998;28;20034;-90
2022/07/29 03:15:06;;;;;;;16.45;7.18;;;;;;;17.41;100.00;94459.44;5031411;28;20029;-89
2022/07/29 03:17:37;;;;;;;9.98;7.03;;;;;;;17.24;100.00;94457.53;5021284;28;20128;-88
2022/07/29 03:20:06;;;;;;;15.70;7.53;;;;;;;17.23;100.00;94453.31;5021874;28;20032;-88
2022/07/29 03:22:47;;;;;;;12.95;6.78;;;;;;;17.28;100.00;94447.09;5038106;28;20323;-88
2022/07/29 03:25:30;;;;;;;;;;;;;;;;;;;;;
2022/07/29 03:28:09;;;;;;;9.82;6.68;;;;;;;17.55;100.00;94427.53;5037361;28;20013;-89
2022/07/29 03:30:48;;;;;;;;;;;;;;;;;;;;;
2022/07/29 03:33:29;;;;;;;10.10;6.80;;;;;;;17.64;100.00;94451.38;5037107;28;20025;-89
2022/07/29 03:36:01;;;;;;;8.98;6.38;;;;;;;17.57;100.00;94443.88;5022088;28;20059;-89
2022/07/29 03:38:38;;;;;;;10.73;6.10;;;;;;;17.70;100.00;94441.41;5037030;28;20049;-89
2022/07/29 03:41:06;;;;;;;8.77;5.85;;;;;;;17.65;100.00;94437.84;5037278;28;20021;-86
2022/07/29 03:43:38;;;;;;;11.35;7.22;;;;;;;17.40;100.00;94438.56;5036784;28;20028;-86
2022/07/29 03:46:09;;;;;;;13.18;7.97;;;;;;;17.28;100.00;94439.94;5036892;28;20108;-86
2022/07/29 03:48:36;;;;;;;15.70;6.97;;;;;;;17.49;100.00;94442.00;5036913;28;20427;-85
2022/07/29 03:51:02;;;;;;;9.88;6.60;;;;;;;17.60;100.00;94434.56;5037976;28;20028;-86
2022/07/29 03:53:27;;;;;;;10.48;6.45;;;;;;;17.61;100.00;94431.56;5020286;28;20025;-85
2022/07/29 03:55:59;;;;;;;11.63;5.97;;;;;;;17.64;100.00;94438.13;5037858;28;20022;-85
2022/07/29 03:58:26;;;;;;;12.80;6.28;;;;;;;17.72;100.00;94428.63;5036720;28;20029;-85
2022/07/29 04:00:52;;;;;;;11.70;6.60;;;;;;;17.74;100.00;94429.88;5035746;28;20033;-85
2022/07/29 04:03:18;;;;;;;12.73;6.68;;;;;;;17.73;100.00;94436.28;5036454;28;20033;-85
2022/07/29 04:05:44;;;;;;;13.68;6.35;;;;;;;17.75;100.00;94435.94;5020104;28;20029;-85
2022/07/29 04:08:09;;;;;;;13.55;6.75;;;;;;;17.74;100.00;94429.09;5037669;28;20079;-85
2022/07/29 04:10:34;;;;;;;13.50;6.95;;;;;;;17.59;100.00;94439.06;5036433;28;20339;-86
2022/07/29 04:13:00;;;;;;;12.68;6.75;;;;;;;17.66;100.00;94436.75;5019999;28;20025;-85
2022/07/29 04:15:27;;;;;;;15.77;6.45;;;;;;;17.74;100.00;94447.66;5036162;28;20029;-86
2022/07/29 04:17:52;;;;;;;9.60;5.95;;;;;;;17.82;100.00;94441.59;5036309;28;20025;-86
2022/07/29 04:20:18;;;;;;;12.20;5.95;;;;;;;17.92;100.00;94451.09;5036246;28;20040;-86
2022/07/29 04:22:43;;;;;;;9.40;5.55;;;;;;;18.00;100.00;94449.53;5036297;28;20453;-86
2022/07/29 04:25:09;;;;;;;12.05;6.35;;;;;;;18.15;100.00;94451.72;5037326;28;20025;-86
2022/07/29 04:27:59;;;;;;;10.32;6.05;;;;;;;18.28;100.00;94455.31;5037238;28;20100;-85
2022/07/29 04:30:25;;;;;;;9.57;6.05;;;;;;;18.42;100.00;94455.13;5036156;28;20021;-86
2022/07/29 04:32:51;;;;;;;17.20;6.28;;;;;;;18.49;100.00;94458.06;5035696;28;20025;-86
2022/07/29 04:35:16;;;;;;;10.73;5.90;;;;;;;18.62;100.00;94459.00;5019310;28;20443;-86
2022/07/29 04:37:41;;;;;;;15.00;6.07;;;;;;;18.55;100.00;94458.69;5037031;28;20060;-87
2022/07/29 04:40:07;;;;;;;10.18;5.82;;;;;;;18.66;100.00;94464.47;5036021;28;20025;-86
2022/07/29 04:42:33;;;;;;;13.02;5.88;;;;;;;18.82;100.00;94463.94;5036840;28;20029;-86
2022/07/29 04:44:58;;;;;;;11.73;6.03;;;;;;;18.93;100.00;94465.94;5019261;28;20028;-86
2022/07/29 04:47:24;;;;;;;11.38;5.70;;;;;;;19.00;100.00;94465.47;5019155;28;20025;-86
2022/07/29 04:49:52;;;;;;;11.50;5.43;;;;;;;19.10;100.00;94466.22;5037205;28;20036;-86
2022/07/29 04:52:18;;;;;;;12.95;5.28;;;;;;;19.19;100.00;94457.13;5024739;28;20347;-87
2022/07/29 04:54:43;;;;;;;8.52;5.18;;;;;;;19.26;100.00;94461.94;5016025;28;20026;-86
2022/07/29 04:57:09;;;;;;;10.80;5.63;;;;;;;19.12;100.00;94453.41;5019799;28;20029;-89
2022/07/29 04:59:34;;;;;;;10.80;5.47;;;;;;;19.13;100.00;94457.63;5016104;28;20026;-88
2022/07/29 05:01:59;;;;;;;10.32;6.10;;;;;;;18.98;100.00;94457.03;5015698;28;20021;-89
2022/07/29 05:04:25;;;;;;;7.95;5.50;;;;;;;19.12;100.00;94459.47;5030537;28;20021;-89
2022/07/29 05:06:50;;;;;;;8.82;5.47;;;;;;;18.99;100.00;94465.75;5018275;28;20083;-88
2022/07/29 05:09:18;;;;;;;11.95;6.00;;;;;;;19.01;100.00;94458.28;5015255;28;20026;-88
2022/07/29 05:11:46;;;;;;;11.85;6.07;;;;;;;19.07;100.00;94468.41;5016997;28;20030;-89
2022/07/29 05:14:11;;;;;;;8.02;5.68;;;;;;;19.17;100.00;94471.81;5016991;28;20033;-88
2022/07/29 05:16:39;;;;;;;8.80;5.95;;;;;;;19.31;100.00;94466.28;4999678;28;20026;-88
2022/07/29 05:19:04;;;;;;;12.65;6.10;;;;;;;19.39;100.00;94470.75;5017183;28;20120;-89
2022/07/29 05:21:30;;;;;;;8.43;5.20;;;;;;;19.36;100.00;94468.75;5016949;28;20105;-89
2022/07/29 05:23:55;;;;;;;8.45;5.55;;;;;;;19.33;100.00;94472.06;5016910;28;20025;-88
2022/07/29 05:26:21;;;;;;;7.72;5.20;;;;;;;19.07;100.00;94475.59;5028796;28;20022;-88
2022/07/29 05:28:46;;;;;;;9.95;5.93;;;;;;;19.34;100.00;94468.28;5017524;28;20029;-88
2022/07/29 05:31:14;;;;;;;13.68;5.75;;;;;;;19.56;100.00;94477.88;5016041;28;20121;-88
2022/07/29 05:33:39;;;;;;;19.25;6.38;;;;;;;19.29;100.00;94473.78;5015814;28;20022;-89
2022/07/29 05:36:06;;;;;;;18.10;6.20;;;;;;;19.20;100.00;94474.59;4999547;28;20030;-87
2022/07/29 05:38:32;;;;;;;13.02;5.75;;;;;;;19.09;100.00;94472.63;5031885;28;20022;-89
2022/07/29 05:40:58;;;;;;;9.30;5.75;;;;;;;19.36;100.00;94479.38;5015954;28;20112;-87
2022/07/29 05:43:24;;;;;;;9.10;6.13;;;;;;;19.65;100.00;94475.16;5015544;28;20026;-87
2022/07/29 05:45:49;;;;;;;12.55;6.55;;;;;;;19.63;100.00;94480.00;5015613;28;20036;-87
2022/07/29 05:48:15;;;;;;;8.93;5.40;;;;;;;19.74;100.00;94485.72;5032150;28;20082;-87
2022/07/29 05:50:40;;;;;;;11.20;5.65;;;;;;;19.94;100.00;94483.44;5032039;28;20359;-87
2022/07/29 05:53:06;;;;;;;9.15;5.10;;;;;;;20.20;100.00;94492.00;5016666;28;20029;-86
2022/07/29 05:55:31;;;;;;;18.42;6.00;;;;;;;20.36;100.00;94487.97;5015258;28;20026;-87
2022/07/29 05:57:56;;;;;;;7.28;5.18;;;;;;;20.58;100.00;94492.16;5015833;28;20026;-87
2022/07/29 06:00:22;;;;;;;7.88;5.43;;;;;;;20.85;100.00;94490.03;5031998;28;20136;-87
2022/07/29 06:02:47;;;;;;;11.77;6.28;;;;;;;20.94;100.00;94493.34;5015599;28;20128;-86
2022/07/29 06:05:14;;;;;;;8.40;5.43;;;;;;;21.13;100.00;94494.75;5015205;28;20080;-87
2022/07/29 06:07:40;;;;;;;9.45;5.63;;;;;;;21.15;100.00;94493.28;5015729;28;20022;-87
2022/07/29 06:10:06;;;;;;;9.20;5.90;;;;;;;21.13;100.00;94497.41;5016574;28;20029;-86
2022/07/29 06:12:32;;;;;;;10.50;5.88;;;;;;;20.75;100.00;94496.53;5015366;28;20125;-87
2022/07/29 06:14:57;;;;;;;15.73;6.03;;;;;;;21.03;100.00;94502.03;5031449;28;20022;-87
2022/07/29 06:17:23;;;;;;;10.93;5.50;;;;;;;21.17;100.00;94511.59;5016615;28;20033;-86
2022/07/29 06:19:48;;;;;;;10.77;5.82;;;;;;;21.16;100.00;94512.72;5015274;28;20074;-87
2022/07/29 06:22:16;;;;;;;10.20;5.82;;;;;;;21.22;100.00;94510.63;5015580;28;20022;-87
2022/07/29 06:24:43;;;;;;;11.80;5.57;;;;;;;21.43;100.00;94515.84;5034606;28;20423;-86
2022/07/29 06:27:09;;;;;;;12.60;6.75;;;;;;;21.64;100.00;94507.75;5034857;28;20022;-87
2022/07/29 06:29:35;;;;;;;14.93;5.85;;;;;;;21.33;100.00;94520.50;5035360;28;20026;-87
2022/07/29 06:32:00;;;;;;;11.40;6.28;;;;;;;21.44;100.00;94528.81;5002663;28;20033;-87
2022/07/29 06:34:26;;;;;;;10.70;5.88;;;;;;;21.66;100.00;94520.75;5034975;28;20026;-87
2022/07/29 06:36:52;;;;;;;10.07;5.63;;;;;;;22.01;100.00;94528.28;5018450;28;20026;-86
2022/07/29 06:39:18;;;;;;;12.27;5.50;;;;;;;22.12;100.00;94524.03;5034638;28;20428;-86
2022/07/29 06:41:49;;;;;;;13.45;6.30;;;;;;;21.99;100.00;94525.94;5018547;28;20120;-86
2022/07/29 06:44:15;;;;;;;13.27;5.70;;;;;;;22.10;100.00;94525.47;5018250;28;20026;-86
2022/07/29 06:46:41;;;;;;;11.35;6.03;;;;;;;22.26;100.00;94533.56;5034722;28;20432;-87
2022/07/29 06:49:06;;;;;;;8.40;5.28;;;;;;;22.49;100.00;94519.72;5034814;28;20026;-87
2022/07/29 06:51:32;;;;;;;9.93;5.05;;;;;;;22.55;100.00;94532.47;5018380;28;20088;-86
2022/07/29 06:53:58;;;;;;;9.55;5.55;;;;;;;22.75;100.00;94529.97;5001830;28;20029;-86
2022/07/29 06:56:24;;;;;;;9.18;5.30;;;;;;;22.84;100.00;94535.91;5017842;28;20026;-87
2022/07/29 06:58:49;;;;;;;9.25;5.38;;;;;;;22.99;100.00;94531.72;5034770;28;20447;-86
2022/07/29 07:01:15;;;;;;;14.60;5.78;;;;;;;23.13;100.00;94536.66;5034384;28;20116;-87
2022/07/29 07:03:41;;;;;;;15.30;5.97;;;;;;;23.29;100.00;94544.72;5018303;28;20087;-87
2022/07/29 07:06:07;;;;;;;8.23;5.30;;;;;;;23.23;100.00;94540.69;5019340;28;20022;-87
2022/07/29 07:08:32;;;;;;;7.57;5.50;;;;;;;23.41;100.00;94541.19;5034575;28;20145;-86
2022/07/29 07:10:58;;;;;;;11.10;5.20;;;;;;;23.50;100.00;94532.22;5034283;28;20034;-86
2022/07/29 07:13:24;;;;;;;9.73;5.30;;;;;;;23.43;100.00;94533.56;5017831;28;20057;-87
2022/07/29 07:15:51;;;;;;;9.68;5.25;;;;;;;23.64;100.00;94537.09;5034384;28;20037;-87
2022/07/29 07:18:16;;;;;;;14.07;5.53;;;;;;;23.64;100.00;94537.91;5017987;28;20037;-87
2022/07/29 07:20:42;;;;;;;16.15;5.95;;;;;;;23.67;100.00;94534.53;5018127;28;20025;-86
2022/07/29 07:23:07;;;;;;;10.15;4.95;;;;;;;23.83;100.00;94537.19;5017652;28;20030;-87
2022/07/29 07:25:33;;;;;;;8.70;5.03;;;;;;;24.06;100.00;94539.22;5018013;28;20022;-87
2022/07/29 07:27:59;;;;;;;14.88;5.05;;;;;;;24.09;100.00;94535.84;5017919;28;20033;-86
2022/07/29 07:30:24;;;;;;;9.68;5.05;;;;;;;24.25;100.00;94541.16;5033903;28;20080;-87
2022/07/29 07:32:50;;;;;;;9.00;5.40;;;;;;;24.24;100.00;94541.47;5018642;28;20029;-86
2022/07/29 07:35:15;;;;;;;8.68;5.05;;;;;;;24.40;100.00;94544.13;5033695;28;20435;-86
2022/07/29 07:37:41;;;;;;;14.65;6.10;;;;;;;24.45;100.00;94541.16;5033848;28;20025;-86
2022/07/29 07:40:09;;;;;;;11.82;5.05;;;;;;;24.63;100.00;94535.38;5000937;28;20123;-85
2022/07/29 07:42:34;;;;;;;10.55;5.70;;;;;;;24.63;100.00;94540.75;5017072;28;20053;-85
2022/07/29 07:45:00;;;;;;;8.43;4.85;;;;;;;24.79;100.00;94536.09;5000747;28;20026;-87
2022/07/29 07:47:25;;;;;;;12.60;6.72;;;;;;;24.73;100.00;94528.69;5033839;28;20355;-87
2022/07/29 07:49:52;;;;;;;9.23;4.78;;;;;;;24.85;100.00;94536.59;5033791;28;20026;-86
2022/07/29 07:52:19;;;;;;;10.63;5.85;;;;;;;24.71;100.00;94531.69;5018181;28;20439;-87
2022/07/29 07:54:44;;;;;;;9.77;4.88;;;;;;;24.76;100.00;94527.97;5016736;28;20041;-87
2022/07/29 07:57:11;;;;;;;6.47;4.50;;;;;;;24.93;100.00;94534.81;5033688;28;20030;-85
2022/07/29 07:59:37;;;;;;;8.48;4.90;;;;;;;24.87;100.00;94536.22;5016865;28;20100;-86
2022/07/29 08:02:02;;;;;;;9.95;5.07;;;;;;;24.88;100.00;94533.19;5033380;28;20065;-87
2022/07/29 08:04:28;;;;;;;10.43;5.18;;;;;;;25.06;100.00;94536.19;5033348;28;20034;-87
2022/07/29 08:06:54;;;;;;;8.43;5.10;;;;;;;24.95;100.00;94533.31;5033499;28;20327;-86
2022/07/29 08:09:23;;;;;;;8.68;5.10;;;;;;;25.01;100.00;94525.00;5033102;28;20025;-86
2022/07/29 08:11:51;;;;;;;7.97;4.97;;;;;;;25.04;100.00;94535.00;5016684;28;20116;-85
2022/07/29 08:14:16;;;;;;;7.10;4.15;;;;;;;25.10;100.00;94529.00;5016457;28;20026;-85
2022/07/29 08:16:42;;;;;;;8.88;4.80;;;;;;;25.21;100.00;94523.03;5032979;28;20435;-85
2022/07/29 08:19:08;;;;;;;29.55;4.65;;;;;;;25.16;100.00;94521.44;5016729;28;20133;-85
2022/07/29 08:21:34;;;;;;;12.93;5.43;;;;;;;25.37;100.00;94528.25;5032853;28;20029;-86
2022/07/29 08:26:44;;;;;;;6.57;4.78;;;;;;;25.33;100.00;94530.91;5017633;28;20060;-86
2022/07/29 08:29:09;;;;;;;8.95;4.00;;;;;;;25.13;100.00;94524.84;5032819;28;20392;-86
2022/07/29 08:31:39;;;;;;;10.43;5.10;;;;;;;25.17;100.00;94514.94;5016575;28;20116;-86
2022/07/29 08:34:05;;;;;;;10.02;4.70;;;;;;;25.47;100.00;94525.00;5016165;28;20036;-86
2022/07/29 08:36:31;;;;;;;8.43;4.55;;;;;;;25.44;100.00;94527.59;5032626;28;20030;-86
2022/07/29 08:38:57;;;;;;;11.30;4.60;;;;;;;25.44;100.00;94524.94;5032464;28;20041;-86
2022/07/29 08:41:22;;;;;;;7.90;4.07;;;;;;;25.73;100.00;94523.50;5016191;28;20037;-85
2022/07/29 08:43:49;;;;;;;7.40;4.32;;;;;;;25.71;100.00;94519.63;5032426;28;20037;-85
2022/07/29 08:46:15;;;;;;;9.80;4.88;;;;;;;25.87;100.00;94516.78;5015656;28;20104;-85
2022/07/29 08:48:41;;;;;;;6.97;3.83;;;;;;;26.18;100.00;94523.75;5015974;28;20467;-87
2022/07/29 08:51:07;;;;;;;12.23;4.13;;;;;;;26.13;100.00;94513.28;5016324;28;20088;-86
2022/07/29 08:53:33;;;;;;;7.57;4.30;;;;;;;26.33;100.00;94511.28;5017047;28;20104;-86
2022/07/29 08:55:59;;;;;;;10.75;4.40;;;;;;;26.22;100.00;94510.34;4999636;28;20133;-87
2022/07/29 08:58:25;;;;;;;10.70;4.38;;;;;;;26.46;100.00;94519.09;5015914;28;20041;-86
2022/07/29 09:00:53;;;;;;;7.95;4.45;;;;;;;26.48;98.79;94524.88;5016401;28;20037;-86
2022/07/29 09:03:20;;;;;;;9.77;4.25;;;;;;;26.48;100.00;94524.88;5032865;28;20079;-87
2022/07/29 09:05:46;;;;;;;10.50;3.80;;;;;;;26.74;100.00;94515.94;5032473;28;20031;-86
2022/07/29 09:08:13;;;;;;;8.65;4.88;;;;;;;26.63;100.00;94517.75;5015724;28;20034;-87
2022/07/29 09:10:38;;;;;;;8.32;4.40;;;;;;;26.68;100.00;94514.75;5016133;28;20034;-86
2022/07/29 09:13:04;;;;;;;10.55;4.07;;;;;;;26.55;100.00;94514.22;5012451;28;20445;-85
2022/07/29 09:15:30;;;;;;;6.90;4.15;;;;;;;26.86;100.00;94503.41;5035349;28;20036;-85
2022/07/29 09:17:58;;;;;;;7.07;4.18;;;;;;;27.05;97.94;94505.16;5019146;28;20462;-87
2022/07/29 09:20:23;;;;;;;8.25;4.03;;;;;;;27.11;96.71;94500.97;5019669;28;20029;-86
2022/07/29 09:22:52;;;;;;;8.68;4.15;;;;;;;27.17;92.39;94496.03;5035189;28;20040;-86
2022/07/29 09:25:38;;;;;;;6.50;4.05;;;;;;;27.28;90.36;94496.13;5035407;28;20036;-86
2022/07/29 09:28:14;;;;;;;11.50;4.25;;;;;;;26.95;94.33;94490.47;5019462;28;20063;-86
2022/07/29 09:31:01;;;;;;;8.35;3.90;;;;;;;27.06;93.92;94493.25;5034442;28;20431;-88
2022/07/29 09:33:40;;;;;;;9.25;4.55;;;;;;;26.75;97.94;94490.63;5015875;28;20416;-89
2022/07/29 09:36:07;;;;;;;7.07;3.65;;;;;;;27.10;98.61;94496.72;5015488;28;20033;-87
2022/07/29 09:38:33;;;;;;;8.88;5.05;;;;;;;26.37;94.65;94501.34;5020549;28;20079;-89
2022/07/29 09:41:00;;;;;;;8.23;4.22;;;;;;;26.91;96.22;94485.06;5035460;28;20501;-87
2022/07/29 09:43:26;;;;;;;10.70;4.63;;;;;;;27.29;96.84;94487.66;5035409;28;20450;-88
2022/07/29 09:45:51;;;;;;;9.50;4.55;;;;;;;27.61;90.90;94491.78;5019001;28;20056;-87
2022/07/29 09:48:21;;;;;;;11.85;4.35;;;;;;;27.63;87.96;94490.28;5035299;28;20029;-90
2022/07/29 09:50:59;;;;;;;;;;;;;;;;;;;;;
2022/07/29 09:53:32;;;;;;;5.78;3.88;;;;;;;27.30;80.75;94488.47;5035070;28;20025;-89
2022/07/29 09:55:58;;;;;;;8.13;3.78;;;;;;;27.78;88.37;94493.81;5026350;28;20030;-88
2022/07/29 09:58:33;;;;;;;;;;;;;;;;;;;;;
2022/07/29 10:00:59;;;;;;;7.18;4.05;;;;;;;28.25;81.84;94489.84;5019205;28;20431;-86
2022/07/29 10:03:30;;;;;;;10.05;3.80;;;;;;;28.02;79.67;94486.25;5002701;28;20121;-86
2022/07/29 10:06:09;;;;;;;12.68;4.18;;;;;;;28.33;74.45;94492.19;5011880;28;20770;-88
2022/07/29 10:08:35;;;;;;;8.05;4.15;;;;;;;27.74;75.15;94484.94;5015529;28;20053;-86
2022/07/29 10:11:17;;;;;;;7.63;4.22;;;;;;;27.78;75.99;94472.28;5038614;28;20056;-87
2022/07/29 10:13:45;;;;;;;6.40;3.78;;;;;;;27.97;77.69;94470.44;5018883;28;20029;-87
2022/07/29 10:16:14;;;;;;;8.93;3.70;;;;;;;28.23;77.94;94471.34;5033143;28;20033;-87
2022/07/29 10:18:50;;;;;;;;;;;;;;;;;;;;;
2022/07/29 10:21:19;;;;;;;6.88;4.32;;;;;;;28.40;74.69;94469.09;5038671;28;20453;-88
2022/07/29 10:23:46;;;;;;;7.07;4.22;;;;;;;28.76;76.40;94466.50;5022359;28;20053;-86
2022/07/29 10:26:12;;;;;;;5.70;3.70;;;;;;;29.02;75.46;94456.56;5022693;28;20437;-87
2022/07/29 10:28:38;;;;;;;5.82;3.85;;;;;;;28.81;71.86;94446.53;5038707;28;20029;-87
2022/07/29 10:31:06;;;;;;;7.72;3.95;;;;;;;28.88;75.25;94455.41;5039754;28;20026;-87
2022/07/29 10:33:47;;;;;;;5.57;4.13;;;;;;;29.15;74.34;94446.94;5037905;28;20033;-86
2022/07/29 10:36:42;;;;;;;6.90;4.30;;;;;;;29.38;70.84;94450.38;5021696;28;20037;-87
2022/07/29 10:39:38;;;;;;;13.65;5.05;;;;;;;29.41;67.31;94446.91;5021971;28;20029;-86
2022/07/29 10:42:20;;;;;;;10.13;4.68;;;;;;;29.25;65.46;94445.38;5038181;28;20443;-86
2022/07/29 10:44:46;;;;;;;13.25;5.35;;;;;;;28.88;65.50;94436.53;5038003;28;20036;-86
2022/07/29 10:47:26;;;;;;;6.85;4.60;;;;;;;28.64;68.68;94436.06;5038003;28;20040;-86
2022/07/29 10:50:04;;;;;;;10.00;4.85;;;;;;;29.31;68.22;94426.88;5039109;28;20410;-87
2022/07/29 10:53:02;;;;;;;7.57;4.32;;;;;;;29.10;68.11;94433.81;5038214;28;20057;-88
2022/07/29 10:55:38;;;;;;;7.28;4.68;;;;;;;29.54;69.38;94431.09;5005520;28;20049;-87
2022/07/29 10:58:23;;;;;;;14.27;4.97;;;;;;;29.55;67.34;94428.03;5034004;28;20116;-88
2022/07/29 11:00:51;;;;;;;10.68;5.25;;;;;;;29.84;67.50;94437.97;5038239;28;20120;-88
2022/07/29 11:03:55;;;;;;;8.27;4.88;;;;;;;30.21;63.11;94436.72;5037470;28;20415;-86
2022/07/29 11:06:21;;;;;;;7.35;4.40;;;;;;;30.67;60.41;94432.25;5037733;28;20030;-86
2022/07/29 11:09:19;;;;;;;10.68;5.43;;;;;;;29.58;61.42;94413.75;5037029;28;20474;-87
2022/07/29 11:11:45;;;;;;;7.03;4.60;;;;;;;30.08;60.99;94419.41;5037609;28;20048;-85
2022/07/29 11:14:11;;;;;;;9.82;5.07;;;;;;;29.95;61.20;94416.34;5037196;28;20057;-86
2022/07/29 11:17:00;;;;;;;12.77;5.40;;;;;;;30.53;62.40;94406.03;5018111;28;20145;-85
2022/07/29 11:19:26;;;;;;;7.95;4.70;;;;;;;31.15;64.92;94411.81;5034383;28;20034;-85
2022/07/29 11:21:54;;;;;;;11.40;4.45;;;;;;;31.76;62.21;94409.69;5034195;28;20037;-85
2022/07/29 11:24:23;;;;;;;10.63;4.90;;;;;;;31.37;60.12;94410.88;5000875;28;20033;-87
2022/07/29 11:27:12;;;;;;;9.80;4.85;;;;;;;31.68;57.13;94406.28;5017813;28;20037;-87
2022/07/29 11:29:52;;;;;;;8.40;4.60;;;;;;;32.07;55.57;94414.41;5017513;28;20029;-88
2022/07/29 11:32:19;;;;;;;6.80;4.55;;;;;;;32.74;53.99;94416.66;5017691;28;20021;-86
2022/07/29 11:34:46;;;;;;;14.25;4.68;;;;;;;32.45;54.95;94408.94;5000576;28;20030;-86
2022/07/29 11:37:12;;;;;;;10.60;4.72;;;;;;;32.64;53.30;94409.44;5017516;28;20485;-86
2022/07/29 11:39:38;;;;;;;7.95;4.68;;;;;;;31.77;55.67;94410.47;5033878;28;20454;-88
2022/07/29 11:42:22;;;;;;;6.50;4.40;;;;;;;31.33;55.43;94399.31;5033790;28;20029;-87